Flight Track Log - Related Links

Times and Time Zones

All times are in EST time to prevent confusion due to time zone crossing. See the EJA396 flight status page for this flight to view local times or setup timezone preferences in your user account.

Time Position Orientation Groundspeed Altitude Reporting Facility
EST Latitude Longitude Course Direction KTS MPH feet Rate Location/Type
Wed 06:54:24 PM 42.1167 -87.8667 45° Northeast 210 242 1,900  Level Chicago TRACON
Wed 06:55:24 PM 42.1667 -87.8000 45° Northeast 266 306 5,700 3,789 Climbing Chicago TRACON
Wed 06:56:18 PM 42.1333 -87.7000 114° Southeast 321 369 9,100 3,614 Climbing Chicago TRACON
Wed 06:56:52 PM 42.1069 -87.6933 169° South 307 353 11,000 3,063 Climbing Chicago Center
Wed 06:57:54 PM 42.0353 -87.7314 202° Southwest 278 320 14,000 1,935 Climbing Chicago Center
Wed 06:58:56 PM 41.9567 -87.7678 199° South 297 342 15,000 465 Climbing Chicago Center
Wed 07:00:03 PM 41.8403 -87.7739 182° South 369 425 15,000  Level Chicago Center
Wed 07:01:05 PM 41.7386 -87.7175 158° South 392 451 15,000  Level Chicago Center
Wed 07:02:07 PM 41.6361 -87.6619 158° South 395 455 15,000  Level Chicago Center
Wed 07:03:09 PM 41.5328 -87.6056 158° South 397 457 15,000  Level Chicago Center
Wed 07:04:11 PM 41.4103 -87.5378 157° South 395 455 15,000  Level Chicago Center
Wed 07:05:13 PM 41.3092 -87.4833 158° South 392 451 15,000  Level Chicago Center
Wed 07:06:15 PM 41.2061 -87.4281 158° South 396 456 15,000 -97 Level Chicago Center
Wed 07:07:17 PM 41.1031 -87.3728 158° South 399 459 14,800 -96 Descending Chicago Center
Wed 07:08:20 PM 40.9994 -87.3169 158° South 401 461 14,800 97 Level Chicago Center
Wed 07:09:21 PM 40.8964 -87.2639 159° South 399 459 15,000 98 Climbing Chicago Center
Wed 07:10:23 PM 40.7944 -87.2081 157° South 398 458 15,000  Level Chicago Center
Wed 07:11:25 PM 40.6725 -87.1431 158° South 394 453 15,000  Level Chicago Center
Wed 07:12:27 PM 40.5778 -87.0931 158° South 396 456 15,000  Level Chicago Center
Wed 07:13:29 PM 40.4758 -87.0386 158° South 397 457 15,000 -97 Level Chicago Center
Wed 07:14:31 PM 40.3531 -86.9750 158° South 397 457 14,800 -581 Descending Chicago Center
Wed 07:15:33 PM 40.2553 -86.9222 158° South 382 440 13,800 -864 Descending Chicago Center
Wed 07:16:36 PM 40.1617 -86.8658 155° Southeast 375 432 13,000 -480 Descending Chicago Center
Wed 07:17:13 PM 40.1156 -86.8042 134° Southeast 383 441 13,000  Level Indianapolis Center
Wed 07:18:15 PM 40.0442 -86.6997 132° Southeast 389 448 13,000 -192 Level Indianapolis Center
Wed 07:19:18 PM 39.9731 -86.5967 132° Southeast 386 444 12,600 -1,344 Descending Indianapolis Center
Wed 07:20:20 PM 39.8931 -86.4806 132° Southeast 372 428 10,200 -2,129 Descending Indianapolis Center
Wed 07:21:22 PM 39.8397 -86.3914 128° Southeast 341 392 8,200 -2,371 Descending Indianapolis Center
Wed 07:22:24 PM 39.8486 -86.2731 84° East 330 380 5,300 -2,032 Descending Indianapolis Center
Wed 07:23:26 PM 39.8858 -86.1789 63° Northeast 310 357 4,000 -871 Descending Indianapolis Center
Wed 07:24:28 PM 39.8419 -86.1433 148° Southeast 230 265 3,500 -484 Descending Indianapolis Center
Wed 07:25:30 PM 39.8072 -86.1675 208° Southwest 170 196 3,000 -435 Descending Indianapolis Center
Wed 07:26:32 PM 39.7822 -86.2011 226° Southwest 142 163 2,600 -629 Descending Indianapolis Center
Wed 07:27:34 PM 39.7503 -86.2419 225° Southwest 136 157 1,700 -726 Descending Indianapolis Center
Wed 07:28:36 PM 39.7283 -86.2678 222° Southwest 120 138 1,100 -435 Descending Indianapolis Center
Wed 07:29:38 PM 39.7114 -86.2897 225° Southwest 96 110 800 -145 Descending Indianapolis Center
Wed 07:30:40 PM 39.7114 -86.2872 90° East 53 61 800  Level Indianapolis Center

Login

Don't have an account? Register now (free) for customized features, flight alerts, and more!